Airfield :
LOGIN :

Register | Disclaimer

   EN    FR    IT 

 










Legend :    VFR   Marginal VFR   IFR   Intensive IFR   Very Intensive IFR
Visi :
Ceiling :
>= 8 km
>= 3000ft
5 to 8 km
1000 to 3000 ft
1500m to 5 km
500 to 1000 ft
800 to 1500m
200 to 500 ft
< 800m
< 200 ft
Symbols :   Thunderstorms  Fog  Heavy snow  Heavy precipitations  Wind > 20 kt
SIGMETs :     Misc.  Thunderstorms  Icing  Turbulence  Mountain Waves  Volcanic Ashes






- Airport Elevation : 83 ft
- IATA code : VOL


LGBL - Aghialos Volos

CURRENT METAR :
  • 261350Z 00000KT CAVOK 13/10 Q1022

EXPIRED METARs :
  • 261320Z 05004KT CAVOK 13/09 Q1023
  • 261250Z 08004KT CAVOK 13/09 Q1023
  • 261220Z 10004KT CAVOK 13/09 Q1023
  • 261150Z 10004KT CAVOK 13/08 Q1023
  • 261120Z 09004KT CAVOK 13/08 Q1024

TAF TAF LGBL
Valid from the 26 at 12:00 until the 26 at 21:00 UTC


261100Z 2612/2621 VRB03KT 9999 FEW025
BECMG 2613/2615 FEW025 BKN080



MET'MAP, your aeronautical weather chart ! - Copyright ORBIFLY December 2007 - Disclaimer

ORBIFLY MET'MAP TEAM :

Programming & Development : Alexandra Zaïnal
Concept & original design : Baudouin d'Aumeries
Assistance for programming : Marc-Olivier Méhu
Technical & hardware support : Manuel Goepfert

Contact : metmap@orbifly.com




SOURCES & CREDITS :

   NOAA